sensor_id;sensor_type;location;lat;lon;timestamp;temperature;humidity
32706;DHT22;19094;50.972;3.538;2022-11-10T00:01:58;15.80;69.90
32706;DHT22;19094;50.972;3.538;2022-11-10T00:04:23;15.90;69.90
32706;DHT22;19094;50.972;3.538;2022-11-10T00:06:49;15.80;69.80
32706;DHT22;19094;50.972;3.538;2022-11-10T00:09:15;15.80;69.80
32706;DHT22;19094;50.972;3.538;2022-11-10T00:11:41;15.80;69.80
32706;DHT22;19094;50.972;3.538;2022-11-10T00:14:07;15.80;69.80
32706;DHT22;19094;50.972;3.538;2022-11-10T00:16:51;15.90;69.90
32706;DHT22;19094;50.972;3.538;2022-11-10T00:19:30;15.80;69.30
32706;DHT22;19094;50.972;3.538;2022-11-10T00:21:57;15.80;69.90
32706;DHT22;19094;50.972;3.538;2022-11-10T00:24:22;15.80;70.00
32706;DHT22;19094;50.972;3.538;2022-11-10T00:26:48;15.70;70.00
32706;DHT22;19094;50.972;3.538;2022-11-10T00:29:14;15.80;69.90
32706;DHT22;19094;50.972;3.538;2022-11-10T00:31:40;15.80;69.90
32706;DHT22;19094;50.972;3.538;2022-11-10T00:34:07;15.80;70.00
32706;DHT22;19094;50.972;3.538;2022-11-10T00:36:35;15.80;69.90
32706;DHT22;19094;50.972;3.538;2022-11-10T00:39:01;15.80;69.80
32706;DHT22;19094;50.972;3.538;2022-11-10T00:41:26;15.80;69.80
32706;DHT22;19094;50.972;3.538;2022-11-10T00:43:53;15.70;69.80
32706;DHT22;19094;50.972;3.538;2022-11-10T00:46:18;15.70;69.90
32706;DHT22;19094;50.972;3.538;2022-11-10T00:48:44;15.70;69.90
32706;DHT22;19094;50.972;3.538;2022-11-10T00:51:24;15.80;70.10
32706;DHT22;19094;50.972;3.538;2022-11-10T00:53:51;15.80;69.90
32706;DHT22;19094;50.972;3.538;2022-11-10T00:56:17;15.70;69.90
32706;DHT22;19094;50.972;3.538;2022-11-10T00:58:43;15.70;70.00
32706;DHT22;19094;50.972;3.538;2022-11-10T01:01:10;15.70;70.00
32706;DHT22;19094;50.972;3.538;2022-11-10T01:03:36;15.70;69.90
32706;DHT22;19094;50.972;3.538;2022-11-10T01:06:13;15.70;70.00
32706;DHT22;19094;50.972;3.538;2022-11-10T01:08:39;15.70;70.00
32706;DHT22;19094;50.972;3.538;2022-11-10T01:11:12;15.70;70.00
32706;DHT22;19094;50.972;3.538;2022-11-10T01:13:38;15.60;70.10
32706;DHT22;19094;50.972;3.538;2022-11-10T01:16:06;15.70;70.10
32706;DHT22;19094;50.972;3.538;2022-11-10T01:18:32;15.70;70.00
32706;DHT22;19094;50.972;3.538;2022-11-10T01:20:58;15.60;70.80
32706;DHT22;19094;50.972;3.538;2022-11-10T01:23:25;15.60;70.10
32706;DHT22;19094;50.972;3.538;2022-11-10T01:25:51;15.60;70.20
32706;DHT22;19094;50.972;3.538;2022-11-10T01:28:17;15.60;70.10
32706;DHT22;19094;50.972;3.538;2022-11-10T01:30:42;15.60;70.10
32706;DHT22;19094;50.972;3.538;2022-11-10T01:33:08;15.70;70.20
32706;DHT22;19094;50.972;3.538;2022-11-10T01:35:34;15.60;70.20
32706;DHT22;19094;50.972;3.538;2022-11-10T01:37:59;15.60;70.20
32706;DHT22;19094;50.972;3.538;2022-11-10T01:40:25;15.60;70.00
32706;DHT22;19094;50.972;3.538;2022-11-10T01:42:52;15.60;70.20
32706;DHT22;19094;50.972;3.538;2022-11-10T01:47:53;15.60;70.00
32706;DHT22;19094;50.972;3.538;2022-11-10T01:50:21;15.60;70.10
32706;DHT22;19094;50.972;3.538;2022-11-10T01:52:49;15.60;70.10
32706;DHT22;19094;50.972;3.538;2022-11-10T01:55:16;15.50;70.10
32706;DHT22;19094;50.972;3.538;2022-11-10T01:57:42;15.50;70.10
32706;DHT22;19094;50.972;3.538;2022-11-10T02:00:09;15.50;70.00
32706;DHT22;19094;50.972;3.538;2022-11-10T02:05:45;15.50;69.90
32706;DHT22;19094;50.972;3.538;2022-11-10T02:08:13;15.50;70.10
32706;DHT22;19094;50.972;3.538;2022-11-10T02:10:40;15.50;70.10
32706;DHT22;19094;50.972;3.538;2022-11-10T02:13:05;15.40;70.30
32706;DHT22;19094;50.972;3.538;2022-11-10T02:15:31;15.40;70.20
32706;DHT22;19094;50.972;3.538;2022-11-10T02:17:57;15.40;70.30
32706;DHT22;19094;50.972;3.538;2022-11-10T02:20:23;15.40;70.20
32706;DHT22;19094;50.972;3.538;2022-11-10T02:22:49;15.40;70.30
32706;DHT22;19094;50.972;3.538;2022-11-10T02:25:18;15.40;70.20
32706;DHT22;19094;50.972;3.538;2022-11-10T02:27:44;15.40;70.20
32706;DHT22;19094;50.972;3.538;2022-11-10T02:30:10;15.40;70.30
32706;DHT22;19094;50.972;3.538;2022-11-10T02:32:36;15.40;70.20
32706;DHT22;19094;50.972;3.538;2022-11-10T02:35:02;15.40;70.30
32706;DHT22;19094;50.972;3.538;2022-11-10T02:37:28;15.40;70.30
32706;DHT22;19094;50.972;3.538;2022-11-10T02:39:54;15.40;70.10
32706;DHT22;19094;50.972;3.538;2022-11-10T02:42:19;15.40;70.20
32706;DHT22;19094;50.972;3.538;2022-11-10T02:44:45;15.40;70.30
32706;DHT22;19094;50.972;3.538;2022-11-10T02:47:11;15.40;70.30
32706;DHT22;19094;50.972;3.538;2022-11-10T02:49:36;15.40;70.10
32706;DHT22;19094;50.972;3.538;2022-11-10T02:52:02;15.40;70.30
32706;DHT22;19094;50.972;3.538;2022-11-10T02:54:28;15.40;70.20
32706;DHT22;19094;50.972;3.538;2022-11-10T02:56:54;15.40;70.20
32706;DHT22;19094;50.972;3.538;2022-11-10T02:59:19;15.40;70.10
32706;DHT22;19094;50.972;3.538;2022-11-10T03:01:45;15.40;70.20
32706;DHT22;19094;50.972;3.538;2022-11-10T03:04:10;15.40;70.10
32706;DHT22;19094;50.972;3.538;2022-11-10T03:06:36;15.40;70.10
32706;DHT22;19094;50.972;3.538;2022-11-10T03:09:02;15.50;70.20
32706;DHT22;19094;50.972;3.538;2022-11-10T03:11:27;15.40;70.10
32706;DHT22;19094;50.972;3.538;2022-11-10T03:13:53;15.40;70.10
32706;DHT22;19094;50.972;3.538;2022-11-10T03:16:19;15.40;70.20
32706;DHT22;19094;50.972;3.538;2022-11-10T03:18:44;15.40;69.90
32706;DHT22;19094;50.972;3.538;2022-11-10T03:21:10;15.40;70.20
32706;DHT22;19094;50.972;3.538;2022-11-10T03:23:36;15.30;70.40
32706;DHT22;19094;50.972;3.538;2022-11-10T03:26:06;15.30;71.00
32706;DHT22;19094;50.972;3.538;2022-11-10T03:28:32;15.30;70.30
32706;DHT22;19094;50.972;3.538;2022-11-10T03:30:58;15.30;70.40
32706;DHT22;19094;50.972;3.538;2022-11-10T03:33:23;15.30;70.30
32706;DHT22;19094;50.972;3.538;2022-11-10T03:35:49;15.30;70.30
32706;DHT22;19094;50.972;3.538;2022-11-10T03:38:15;15.30;70.30
32706;DHT22;19094;50.972;3.538;2022-11-10T03:40:40;15.40;70.20
32706;DHT22;19094;50.972;3.538;2022-11-10T03:43:06;15.40;70.20
32706;DHT22;19094;50.972;3.538;2022-11-10T03:45:31;15.40;70.10
32706;DHT22;19094;50.972;3.538;2022-11-10T03:47:57;15.40;70.10
32706;DHT22;19094;50.972;3.538;2022-11-10T03:50:23;15.40;70.10
32706;DHT22;19094;50.972;3.538;2022-11-10T03:52:48;15.40;70.10
32706;DHT22;19094;50.972;3.538;2022-11-10T03:55:16;15.40;70.00
32706;DHT22;19094;50.972;3.538;2022-11-10T03:57:43;15.40;70.00
32706;DHT22;19094;50.972;3.538;2022-11-10T04:00:11;15.40;70.10
32706;DHT22;19094;50.972;3.538;2022-11-10T04:02:37;15.40;70.00
32706;DHT22;19094;50.972;3.538;2022-11-10T04:05:04;15.40;70.10
32706;DHT22;19094;50.972;3.538;2022-11-10T04:07:55;15.30;70.20
32706;DHT22;19094;50.972;3.538;2022-11-10T04:10:40;15.30;70.20
32706;DHT22;19094;50.972;3.538;2022-11-10T04:13:05;15.30;70.10
32706;DHT22;19094;50.972;3.538;2022-11-10T04:15:50;15.30;70.30
32706;DHT22;19094;50.972;3.538;2022-11-10T04:18:16;15.30;70.20
32706;DHT22;19094;50.972;3.538;2022-11-10T04:20:54;15.30;70.30
32706;DHT22;19094;50.972;3.538;2022-11-10T04:23:25;15.30;70.20
32706;DHT22;19094;50.972;3.538;2022-11-10T04:25:53;15.30;70.20
32706;DHT22;19094;50.972;3.538;2022-11-10T04:28:37;15.30;70.30
32706;DHT22;19094;50.972;3.538;2022-11-10T04:31:03;15.30;70.30
32706;DHT22;19094;50.972;3.538;2022-11-10T04:33:28;15.30;70.30
32706;DHT22;19094;50.972;3.538;2022-11-10T04:35:54;15.30;70.20
32706;DHT22;19094;50.972;3.538;2022-11-10T04:38:19;15.30;70.20
32706;DHT22;19094;50.972;3.538;2022-11-10T04:40:45;15.30;70.20
32706;DHT22;19094;50.972;3.538;2022-11-10T04:43:11;15.30;70.20
32706;DHT22;19094;50.972;3.538;2022-11-10T04:45:36;15.20;70.20
32706;DHT22;19094;50.972;3.538;2022-11-10T04:48:02;15.30;70.20
32706;DHT22;19094;50.972;3.538;2022-11-10T04:50:27;15.20;70.20
32706;DHT22;19094;50.972;3.538;2022-11-10T04:52:53;15.30;70.20
32706;DHT22;19094;50.972;3.538;2022-11-10T04:55:19;15.30;70.20
32706;DHT22;19094;50.972;3.538;2022-11-10T04:57:45;15.20;70.10
32706;DHT22;19094;50.972;3.538;2022-11-10T05:00:11;15.20;70.20
32706;DHT22;19094;50.972;3.538;2022-11-10T05:02:37;15.20;70.10
32706;DHT22;19094;50.972;3.538;2022-11-10T05:05:03;15.20;70.30
32706;DHT22;19094;50.972;3.538;2022-11-10T05:07:29;15.20;70.30
32706;DHT22;19094;50.972;3.538;2022-11-10T05:09:54;15.20;70.20
32706;DHT22;19094;50.972;3.538;2022-11-10T05:12:20;15.20;70.10
32706;DHT22;19094;50.972;3.538;2022-11-10T05:14:46;15.20;70.20
32706;DHT22;19094;50.972;3.538;2022-11-10T05:17:11;15.20;70.30
32706;DHT22;19094;50.972;3.538;2022-11-10T05:19:37;15.20;70.20
32706;DHT22;19094;50.972;3.538;2022-11-10T05:22:03;15.20;71.00
32706;DHT22;19094;50.972;3.538;2022-11-10T05:24:28;15.10;70.20
32706;DHT22;19094;50.972;3.538;2022-11-10T05:26:54;15.10;70.20
32706;DHT22;19094;50.972;3.538;2022-11-10T05:29:19;15.10;70.30
32706;DHT22;19094;50.972;3.538;2022-11-10T05:31:45;15.10;70.30
32706;DHT22;19094;50.972;3.538;2022-11-10T05:34:11;15.10;70.40
32706;DHT22;19094;50.972;3.538;2022-11-10T05:36:36;15.10;70.40
32706;DHT22;19094;50.972;3.538;2022-11-10T05:39:02;15.10;70.40
32706;DHT22;19094;50.972;3.538;2022-11-10T05:41:28;15.10;70.40
32706;DHT22;19094;50.972;3.538;2022-11-10T05:43:53;15.10;70.40
32706;DHT22;19094;50.972;3.538;2022-11-10T05:46:19;15.00;70.40
32706;DHT22;19094;50.972;3.538;2022-11-10T05:48:46;15.10;70.50
32706;DHT22;19094;50.972;3.538;2022-11-10T05:51:12;15.10;70.30
32706;DHT22;19094;50.972;3.538;2022-11-10T05:53:37;15.10;70.30
32706;DHT22;19094;50.972;3.538;2022-11-10T05:56:03;15.10;70.50
32706;DHT22;19094;50.972;3.538;2022-11-10T05:58:29;15.10;70.40
32706;DHT22;19094;50.972;3.538;2022-11-10T06:00:55;15.10;70.40
32706;DHT22;19094;50.972;3.538;2022-11-10T06:03:21;15.00;70.50
32706;DHT22;19094;50.972;3.538;2022-11-10T06:05:47;15.10;70.40
32706;DHT22;19094;50.972;3.538;2022-11-10T06:08:13;15.10;70.50
32706;DHT22;19094;50.972;3.538;2022-11-10T06:10:39;15.10;70.70
32706;DHT22;19094;50.972;3.538;2022-11-10T06:13:05;15.00;70.60
32706;DHT22;19094;50.972;3.538;2022-11-10T06:15:31;15.10;70.60
32706;DHT22;19094;50.972;3.538;2022-11-10T06:17:57;15.10;70.50
32706;DHT22;19094;50.972;3.538;2022-11-10T06:20:23;15.10;70.60
32706;DHT22;19094;50.972;3.538;2022-11-10T06:23:08;15.10;70.50
32706;DHT22;19094;50.972;3.538;2022-11-10T06:25:35;15.10;70.50
32706;DHT22;19094;50.972;3.538;2022-11-10T06:28:01;15.00;70.60
32706;DHT22;19094;50.972;3.538;2022-11-10T06:30:28;15.00;70.50
32706;DHT22;19094;50.972;3.538;2022-11-10T06:32:54;15.10;70.50
32706;DHT22;19094;50.972;3.538;2022-11-10T06:35:21;15.10;70.60
32706;DHT22;19094;50.972;3.538;2022-11-10T06:40:29;15.10;70.00
32706;DHT22;19094;50.972;3.538;2022-11-10T06:42:55;15.10;70.20
32706;DHT22;19094;50.972;3.538;2022-11-10T06:45:22;15.10;70.50
32706;DHT22;19094;50.972;3.538;2022-11-10T06:47:48;15.00;70.40
32706;DHT22;19094;50.972;3.538;2022-11-10T06:50:14;15.00;70.60
32706;DHT22;19094;50.972;3.538;2022-11-10T06:52:39;15.00;70.60
32706;DHT22;19094;50.972;3.538;2022-11-10T06:55:05;15.00;70.40
32706;DHT22;19094;50.972;3.538;2022-11-10T06:57:38;15.00;70.40
32706;DHT22;19094;50.972;3.538;2022-11-10T07:00:04;15.00;70.30
32706;DHT22;19094;50.972;3.538;2022-11-10T07:02:30;15.00;70.40
32706;DHT22;19094;50.972;3.538;2022-11-10T07:04:55;15.00;70.40
32706;DHT22;19094;50.972;3.538;2022-11-10T07:07:21;15.00;70.40
32706;DHT22;19094;50.972;3.538;2022-11-10T07:09:47;15.00;70.40
32706;DHT22;19094;50.972;3.538;2022-11-10T07:12:12;15.00;70.40
32706;DHT22;19094;50.972;3.538;2022-11-10T07:14:38;14.90;70.40
32706;DHT22;19094;50.972;3.538;2022-11-10T07:17:03;14.90;70.40
32706;DHT22;19094;50.972;3.538;2022-11-10T07:19:29;15.00;70.80
32706;DHT22;19094;50.972;3.538;2022-11-10T07:21:57;15.00;70.90
32706;DHT22;19094;50.972;3.538;2022-11-10T07:24:22;15.00;71.00
32706;DHT22;19094;50.972;3.538;2022-11-10T07:26:48;15.00;71.80
32706;DHT22;19094;50.972;3.538;2022-11-10T07:29:13;14.90;72.10
32706;DHT22;19094;50.972;3.538;2022-11-10T07:31:39;15.00;72.90
32706;DHT22;19094;50.972;3.538;2022-11-10T07:34:05;15.00;72.50
32706;DHT22;19094;50.972;3.538;2022-11-10T07:36:30;14.90;71.80
32706;DHT22;19094;50.972;3.538;2022-11-10T07:38:56;14.90;71.90
32706;DHT22;19094;50.972;3.538;2022-11-10T07:41:22;15.00;71.80
32706;DHT22;19094;50.972;3.538;2022-11-10T07:43:47;14.90;71.70
32706;DHT22;19094;50.972;3.538;2022-11-10T07:46:13;14.90;71.90
32706;DHT22;19094;50.972;3.538;2022-11-10T07:48:39;14.90;71.70
32706;DHT22;19094;50.972;3.538;2022-11-10T07:51:04;14.90;71.90
32706;DHT22;19094;50.972;3.538;2022-11-10T07:53:30;14.90;71.80
32706;DHT22;19094;50.972;3.538;2022-11-10T07:55:57;14.90;71.70
32706;DHT22;19094;50.972;3.538;2022-11-10T07:58:22;14.90;71.70
32706;DHT22;19094;50.972;3.538;2022-11-10T08:00:48;14.90;71.70
32706;DHT22;19094;50.972;3.538;2022-11-10T08:03:16;14.90;71.70
32706;DHT22;19094;50.972;3.538;2022-11-10T08:05:43;15.00;71.60
32706;DHT22;19094;50.972;3.538;2022-11-10T08:08:09;15.00;71.60
32706;DHT22;19094;50.972;3.538;2022-11-10T08:10:36;15.00;71.40
32706;DHT22;19094;50.972;3.538;2022-11-10T08:13:04;15.00;71.50
32706;DHT22;19094;50.972;3.538;2022-11-10T08:15:31;15.00;71.50
32706;DHT22;19094;50.972;3.538;2022-11-10T08:17:59;15.00;71.40
32706;DHT22;19094;50.972;3.538;2022-11-10T08:20:25;15.00;71.60
32706;DHT22;19094;50.972;3.538;2022-11-10T08:22:59;15.00;71.60
32706;DHT22;19094;50.972;3.538;2022-11-10T08:25:25;15.00;71.30
32706;DHT22;19094;50.972;3.538;2022-11-10T08:27:59;15.00;71.00
32706;DHT22;19094;50.972;3.538;2022-11-10T08:30:25;15.00;71.30
32706;DHT22;19094;50.972;3.538;2022-11-10T08:32:56;15.00;71.30
32706;DHT22;19094;50.972;3.538;2022-11-10T08:35:24;15.00;71.10
32706;DHT22;19094;50.972;3.538;2022-11-10T08:37:50;15.00;70.90
32706;DHT22;19094;50.972;3.538;2022-11-10T08:40:16;15.00;71.00
32706;DHT22;19094;50.972;3.538;2022-11-10T08:42:43;15.00;71.00
32706;DHT22;19094;50.972;3.538;2022-11-10T08:45:09;15.00;71.10
32706;DHT22;19094;50.972;3.538;2022-11-10T08:47:34;15.10;71.00
32706;DHT22;19094;50.972;3.538;2022-11-10T08:50:00;15.10;70.90
32706;DHT22;19094;50.972;3.538;2022-11-10T08:52:26;15.10;70.70
32706;DHT22;19094;50.972;3.538;2022-11-10T08:54:52;15.10;70.80
32706;DHT22;19094;50.972;3.538;2022-11-10T08:57:17;15.10;71.00
32706;DHT22;19094;50.972;3.538;2022-11-10T08:59:43;15.10;70.80
32706;DHT22;19094;50.972;3.538;2022-11-10T09:02:09;15.10;70.80
32706;DHT22;19094;50.972;3.538;2022-11-10T09:04:35;15.20;70.80
32706;DHT22;19094;50.972;3.538;2022-11-10T09:07:00;15.10;70.80
32706;DHT22;19094;50.972;3.538;2022-11-10T09:09:26;15.10;70.80
32706;DHT22;19094;50.972;3.538;2022-11-10T09:11:52;15.10;70.80
32706;DHT22;19094;50.972;3.538;2022-11-10T09:14:18;15.20;70.70
32706;DHT22;19094;50.972;3.538;2022-11-10T09:16:44;15.20;70.60
32706;DHT22;19094;50.972;3.538;2022-11-10T09:19:09;15.20;70.60
32706;DHT22;19094;50.972;3.538;2022-11-10T09:21:35;15.20;70.50
32706;DHT22;19094;50.972;3.538;2022-11-10T09:24:01;15.20;70.30
32706;DHT22;19094;50.972;3.538;2022-11-10T09:26:26;15.30;70.10
32706;DHT22;19094;50.972;3.538;2022-11-10T09:28:52;15.30;70.20
32706;DHT22;19094;50.972;3.538;2022-11-10T09:31:18;15.30;70.20
32706;DHT22;19094;50.972;3.538;2022-11-10T09:33:43;15.40;70.10
32706;DHT22;19094;50.972;3.538;2022-11-10T09:36:09;15.40;70.60
32706;DHT22;19094;50.972;3.538;2022-11-10T09:38:35;15.50;70.00
32706;DHT22;19094;50.972;3.538;2022-11-10T09:41:10;15.50;69.50
32706;DHT22;19094;50.972;3.538;2022-11-10T09:46:52;15.50;69.70
32706;DHT22;19094;50.972;3.538;2022-11-10T09:49:37;15.50;70.10
32706;DHT22;19094;50.972;3.538;2022-11-10T09:52:04;15.60;71.80
32706;DHT22;19094;50.972;3.538;2022-11-10T09:57:19;15.70;71.40
32706;DHT22;19094;50.972;3.538;2022-11-10T09:59:46;15.70;71.80
32706;DHT22;19094;50.972;3.538;2022-11-10T10:05:33;15.80;72.20
32706;DHT22;19094;50.972;3.538;2022-11-10T10:08:05;15.90;71.70
32706;DHT22;19094;50.972;3.538;2022-11-10T10:18:35;15.90;72.10
32706;DHT22;19094;50.972;3.538;2022-11-10T10:23:58;16.10;70.10
32706;DHT22;19094;50.972;3.538;2022-11-10T10:26:32;16.00;70.20
32706;DHT22;19094;50.972;3.538;2022-11-10T10:29:08;16.10;69.70
32706;DHT22;19094;50.972;3.538;2022-11-10T10:31:41;16.00;69.60
32706;DHT22;19094;50.972;3.538;2022-11-10T10:34:14;16.10;69.50
32706;DHT22;19094;50.972;3.538;2022-11-10T10:36:40;16.10;69.30
32706;DHT22;19094;50.972;3.538;2022-11-10T10:41:35;16.20;68.70
32706;DHT22;19094;50.972;3.538;2022-11-10T10:44:09;16.20;69.10
32706;DHT22;19094;50.972;3.538;2022-11-10T10:46:55;16.20;68.80
32706;DHT22;19094;50.972;3.538;2022-11-10T10:49:23;16.20;68.80
32706;DHT22;19094;50.972;3.538;2022-11-10T10:52:05;16.60;68.20
32706;DHT22;19094;50.972;3.538;2022-11-10T10:54:36;16.90;66.70
32706;DHT22;19094;50.972;3.538;2022-11-10T10:57:22;16.90;66.40
32706;DHT22;19094;50.972;3.538;2022-11-10T10:59:49;17.10;65.70
32706;DHT22;19094;50.972;3.538;2022-11-10T11:02:25;17.40;64.90
32706;DHT22;19094;50.972;3.538;2022-11-10T11:07:37;18.10;62.40
32706;DHT22;19094;50.972;3.538;2022-11-10T11:10:26;18.30;61.90
32706;DHT22;19094;50.972;3.538;2022-11-10T11:12:53;18.70;60.50
32706;DHT22;19094;50.972;3.538;2022-11-10T11:15:27;18.90;59.70
32706;DHT22;19094;50.972;3.538;2022-11-10T11:18:02;19.20;59.00
32706;DHT22;19094;50.972;3.538;2022-11-10T11:20:47;19.30;58.20
32706;DHT22;19094;50.972;3.538;2022-11-10T11:29:28;19.30;57.50
32706;DHT22;19094;50.972;3.538;2022-11-10T11:32:11;19.20;57.90
32706;DHT22;19094;50.972;3.538;2022-11-10T11:35:15;19.10;58.20
32706;DHT22;19094;50.972;3.538;2022-11-10T11:37:54;19.10;58.10
32706;DHT22;19094;50.972;3.538;2022-11-10T11:43:44;19.10;58.20
32706;DHT22;19094;50.972;3.538;2022-11-10T11:51:38;19.10;58.10
32706;DHT22;19094;50.972;3.538;2022-11-10T11:56:51;19.00;58.40
32706;DHT22;19094;50.972;3.538;2022-11-10T11:59:27;19.00;58.60
32706;DHT22;19094;50.972;3.538;2022-11-10T12:02:32;19.00;58.50
32706;DHT22;19094;50.972;3.538;2022-11-10T12:10:45;19.70;57.70
32706;DHT22;19094;50.972;3.538;2022-11-10T12:15:58;20.20;56.50
32706;DHT22;19094;50.972;3.538;2022-11-10T12:18:30;20.50;55.90
32706;DHT22;19094;50.972;3.538;2022-11-10T12:26:58;20.90;53.70
32706;DHT22;19094;50.972;3.538;2022-11-10T12:29:49;21.10;53.60
32706;DHT22;19094;50.972;3.538;2022-11-10T12:32:25;21.10;53.90
32706;DHT22;19094;50.972;3.538;2022-11-10T12:38:01;21.10;53.90
32706;DHT22;19094;50.972;3.538;2022-11-10T12:40:31;21.10;53.90
32706;DHT22;19094;50.972;3.538;2022-11-10T12:43:03;20.90;54.00
32706;DHT22;19094;50.972;3.538;2022-11-10T12:45:44;21.00;53.90
32706;DHT22;19094;50.972;3.538;2022-11-10T12:48:11;21.00;54.30
32706;DHT22;19094;50.972;3.538;2022-11-10T12:50:52;21.00;54.30
32706;DHT22;19094;50.972;3.538;2022-11-10T12:53:25;21.10;53.80
32706;DHT22;19094;50.972;3.538;2022-11-10T12:55:59;21.20;53.90
32706;DHT22;19094;50.972;3.538;2022-11-10T12:58:25;21.30;53.80
32706;DHT22;19094;50.972;3.538;2022-11-10T13:00:58;21.50;53.30
32706;DHT22;19094;50.972;3.538;2022-11-10T13:03:31;21.70;52.80
32706;DHT22;19094;50.972;3.538;2022-11-10T13:06:04;21.90;52.60
32706;DHT22;19094;50.972;3.538;2022-11-10T13:19:11;21.60;52.00
32706;DHT22;19094;50.972;3.538;2022-11-10T13:24:33;21.40;52.90
32706;DHT22;19094;50.972;3.538;2022-11-10T13:30:00;21.10;52.70
32706;DHT22;19094;50.972;3.538;2022-11-10T13:32:29;21.10;53.50
32706;DHT22;19094;50.972;3.538;2022-11-10T13:35:43;21.00;53.40
32706;DHT22;19094;50.972;3.538;2022-11-10T13:38:01;21.10;53.70
32706;DHT22;19094;50.972;3.538;2022-11-10T13:40:28;21.00;53.60
32706;DHT22;19094;50.972;3.538;2022-11-10T13:45:42;21.00;54.10
32706;DHT22;19094;50.972;3.538;2022-11-10T13:56:24;20.60;54.60
32706;DHT22;19094;50.972;3.538;2022-11-10T13:58:51;20.50;54.20
32706;DHT22;19094;50.972;3.538;2022-11-10T14:06:24;20.40;55.20
32706;DHT22;19094;50.972;3.538;2022-11-10T14:10:09;20.30;55.00
32706;DHT22;19094;50.972;3.538;2022-11-10T14:14:58;20.20;55.50
32706;DHT22;19094;50.972;3.538;2022-11-10T14:17:33;20.00;55.90
32706;DHT22;19094;50.972;3.538;2022-11-10T14:20:00;19.90;56.30
32706;DHT22;19094;50.972;3.538;2022-11-10T14:22:33;19.90;56.30
32706;DHT22;19094;50.972;3.538;2022-11-10T14:25:05;19.90;56.40
32706;DHT22;19094;50.972;3.538;2022-11-10T14:27:39;19.90;56.30
32706;DHT22;19094;50.972;3.538;2022-11-10T14:30:29;20.00;56.30
32706;DHT22;19094;50.972;3.538;2022-11-10T14:33:03;20.10;55.80
32706;DHT22;19094;50.972;3.538;2022-11-10T14:35:33;20.10;55.70
32706;DHT22;19094;50.972;3.538;2022-11-10T14:38:04;20.20;56.10
32706;DHT22;19094;50.972;3.538;2022-11-10T14:40:31;20.30;55.50
32706;DHT22;19094;50.972;3.538;2022-11-10T14:42:57;20.30;55.40
32706;DHT22;19094;50.972;3.538;2022-11-10T14:45:25;20.20;55.50
32706;DHT22;19094;50.972;3.538;2022-11-10T14:47:56;20.10;55.60
32706;DHT22;19094;50.972;3.538;2022-11-10T14:50:31;20.00;55.80
32706;DHT22;19094;50.972;3.538;2022-11-10T14:55:49;19.70;56.50
32706;DHT22;19094;50.972;3.538;2022-11-10T15:00:49;19.40;57.30
32706;DHT22;19094;50.972;3.538;2022-11-10T15:03:20;19.30;57.90
32706;DHT22;19094;50.972;3.538;2022-11-10T15:05:50;19.10;58.30
32706;DHT22;19094;50.972;3.538;2022-11-10T15:08:16;19.00;58.60
32706;DHT22;19094;50.972;3.538;2022-11-10T15:10:43;18.90;59.20
32706;DHT22;19094;50.972;3.538;2022-11-10T15:15:39;18.70;59.60
32706;DHT22;19094;50.972;3.538;2022-11-10T15:18:06;18.70;60.00
32706;DHT22;19094;50.972;3.538;2022-11-10T15:20:39;18.60;60.30
32706;DHT22;19094;50.972;3.538;2022-11-10T15:23:20;18.50;60.40
32706;DHT22;19094;50.972;3.538;2022-11-10T15:25:47;18.50;60.50
32706;DHT22;19094;50.972;3.538;2022-11-10T15:28:17;18.40;60.80
32706;DHT22;19094;50.972;3.538;2022-11-10T15:30:55;18.40;61.20
32706;DHT22;19094;50.972;3.538;2022-11-10T15:33:27;18.30;61.30
32706;DHT22;19094;50.972;3.538;2022-11-10T15:35:55;18.20;62.20
32706;DHT22;19094;50.972;3.538;2022-11-10T15:38:36;18.20;61.60
32706;DHT22;19094;50.972;3.538;2022-11-10T15:41:11;18.20;62.00
32706;DHT22;19094;50.972;3.538;2022-11-10T15:43:37;18.20;62.20
32706;DHT22;19094;50.972;3.538;2022-11-10T15:46:30;18.10;62.50
32706;DHT22;19094;50.972;3.538;2022-11-10T15:48:55;18.10;62.90
32706;DHT22;19094;50.972;3.538;2022-11-10T15:51:21;18.00;63.40
32706;DHT22;19094;50.972;3.538;2022-11-10T15:53:48;17.90;63.90
32706;DHT22;19094;50.972;3.538;2022-11-10T15:56:20;17.90;64.00
32706;DHT22;19094;50.972;3.538;2022-11-10T15:58:50;17.90;64.40
32706;DHT22;19094;50.972;3.538;2022-11-10T16:01:19;17.90;64.40
32706;DHT22;19094;50.972;3.538;2022-11-10T16:03:45;17.90;64.30
32706;DHT22;19094;50.972;3.538;2022-11-10T16:06:13;17.90;64.30
32706;DHT22;19094;50.972;3.538;2022-11-10T16:08:39;17.80;63.90
32706;DHT22;19094;50.972;3.538;2022-11-10T16:11:18;17.80;63.80
32706;DHT22;19094;50.972;3.538;2022-11-10T16:13:45;17.80;63.90
32706;DHT22;19094;50.972;3.538;2022-11-10T16:16:16;17.80;63.90
32706;DHT22;19094;50.972;3.538;2022-11-10T16:18:43;17.80;63.70
32706;DHT22;19094;50.972;3.538;2022-11-10T16:21:18;17.80;63.90
32706;DHT22;19094;50.972;3.538;2022-11-10T16:23:44;17.80;63.70
32706;DHT22;19094;50.972;3.538;2022-11-10T16:26:13;17.80;64.60
32706;DHT22;19094;50.972;3.538;2022-11-10T16:28:39;17.70;64.00
32706;DHT22;19094;50.972;3.538;2022-11-10T16:31:10;17.70;63.90
32706;DHT22;19094;50.972;3.538;2022-11-10T16:33:36;17.70;64.00
32706;DHT22;19094;50.972;3.538;2022-11-10T16:36:02;17.60;64.30
32706;DHT22;19094;50.972;3.538;2022-11-10T16:38:29;17.60;64.50
32706;DHT22;19094;50.972;3.538;2022-11-10T16:41:01;17.70;64.40
32706;DHT22;19094;50.972;3.538;2022-11-10T16:43:28;17.60;64.30
32706;DHT22;19094;50.972;3.538;2022-11-10T16:45:56;17.60;64.30
32706;DHT22;19094;50.972;3.538;2022-11-10T16:48:26;17.60;64.50
32706;DHT22;19094;50.972;3.538;2022-11-10T16:50:54;17.60;64.50
32706;DHT22;19094;50.972;3.538;2022-11-10T16:53:31;17.60;64.70
32706;DHT22;19094;50.972;3.538;2022-11-10T16:55:57;17.60;64.70
32706;DHT22;19094;50.972;3.538;2022-11-10T16:58:24;17.50;64.60
32706;DHT22;19094;50.972;3.538;2022-11-10T17:00:53;17.50;64.70
32706;DHT22;19094;50.972;3.538;2022-11-10T17:03:45;17.50;64.90
32706;DHT22;19094;50.972;3.538;2022-11-10T17:06:13;17.40;64.80
32706;DHT22;19094;50.972;3.538;2022-11-10T17:08:40;17.40;65.40
32706;DHT22;19094;50.972;3.538;2022-11-10T17:11:06;17.30;66.00
32706;DHT22;19094;50.972;3.538;2022-11-10T17:13:32;17.30;65.60
32706;DHT22;19094;50.972;3.538;2022-11-10T17:16:11;17.30;65.40
32706;DHT22;19094;50.972;3.538;2022-11-10T17:18:39;17.40;65.30
32706;DHT22;19094;50.972;3.538;2022-11-10T17:21:05;17.40;66.10
32706;DHT22;19094;50.972;3.538;2022-11-10T17:23:31;17.30;66.70
32706;DHT22;19094;50.972;3.538;2022-11-10T17:25:59;17.30;66.40
32706;DHT22;19094;50.972;3.538;2022-11-10T17:28:25;17.20;66.10
32706;DHT22;19094;50.972;3.538;2022-11-10T17:30:50;17.30;65.90
32706;DHT22;19094;50.972;3.538;2022-11-10T17:33:17;17.30;65.60